createdAt,value
2023-03-16T00:00:35.505Z,-0.60
2023-03-16T00:03:07.381Z,-0.60
2023-03-16T00:05:39.206Z,-0.60
2023-03-16T00:08:11.021Z,-0.60
2023-03-16T00:10:47.043Z,-0.60
2023-03-16T00:13:25.073Z,-0.60
2023-03-16T00:15:57.886Z,-0.70
2023-03-16T00:18:30.717Z,-0.70
2023-03-16T00:21:05.889Z,-0.70
2023-03-16T00:23:37.772Z,-0.70
2023-03-16T00:26:14.097Z,-0.70
2023-03-16T00:28:45.935Z,-0.70
2023-03-16T00:31:19.852Z,-0.70
2023-03-16T00:33:51.699Z,-0.70
2023-03-16T00:36:25.859Z,-0.70
2023-03-16T00:38:57.716Z,-0.70
2023-03-16T00:41:29.532Z,-0.70
2023-03-16T00:44:03.688Z,-0.70
2023-03-16T00:46:37.858Z,-0.80
2023-03-16T00:49:12.361Z,-0.80
2023-03-16T00:51:47.394Z,-0.80
2023-03-16T00:54:20.178Z,-0.80
2023-03-16T00:56:52.081Z,-0.80
2023-03-16T00:59:26.289Z,-0.80
2023-03-16T01:02:00.714Z,-0.80
2023-03-16T01:04:34.317Z,-0.80
2023-03-16T01:07:09.461Z,-0.80
2023-03-16T01:09:41.683Z,-0.90
2023-03-16T01:12:17.584Z,-0.90
2023-03-16T01:14:49.650Z,-0.90
2023-03-16T01:17:22.604Z,-0.90
2023-03-16T01:19:56.574Z,-1.00
2023-03-16T01:22:28.918Z,-0.90
2023-03-16T01:25:00.787Z,-1.00
2023-03-16T01:27:35.027Z,-0.90
2023-03-16T01:30:12.485Z,-0.90
2023-03-16T01:32:44.319Z,-1.00
2023-03-16T01:35:16.313Z,-1.00
2023-03-16T01:37:48.358Z,-1.00
2023-03-16T01:40:20.429Z,-0.90
2023-03-16T01:43:00.313Z,-0.90
2023-03-16T01:45:50.877Z,-0.90
2023-03-16T01:48:25.019Z,-1.00
2023-03-16T01:50:57.030Z,-1.00
2023-03-16T01:53:28.981Z,-1.00
2023-03-16T01:56:03.307Z,-1.00
2023-03-16T01:58:35.513Z,-1.10
2023-03-16T02:01:07.379Z,-1.10
2023-03-16T02:03:40.286Z,-1.20
2023-03-16T02:06:14.693Z,-1.20
2023-03-16T02:08:47.896Z,-1.20
2023-03-16T02:11:19.941Z,-1.20
2023-03-16T02:13:52.802Z,-1.20
2023-03-16T02:16:24.847Z,-1.10
2023-03-16T02:18:56.645Z,-1.10
2023-03-16T02:21:33.339Z,-1.00
2023-03-16T02:24:05.407Z,-1.00
2023-03-16T02:26:44.921Z,-0.90
2023-03-16T02:29:35.645Z,-0.90
2023-03-16T02:32:10.384Z,-0.90
2023-03-16T02:34:42.605Z,-0.80
2023-03-16T02:37:16.628Z,-0.80
2023-03-16T02:39:48.441Z,-0.80
2023-03-16T02:42:23.042Z,-0.70
2023-03-16T02:44:59.145Z,-0.70
2023-03-16T02:47:36.083Z,-0.70
2023-03-16T02:50:08.602Z,-0.70
2023-03-16T02:52:42.950Z,-0.70
2023-03-16T02:55:14.804Z,-0.70
2023-03-16T02:57:49.273Z,-0.70
2023-03-16T03:00:22.113Z,-0.70
2023-03-16T03:02:53.951Z,-0.70
2023-03-16T03:05:28.084Z,-0.80
2023-03-16T03:08:02.347Z,-0.80
2023-03-16T03:10:34.169Z,-0.80
2023-03-16T03:13:08.545Z,-0.90
2023-03-16T03:15:40.486Z,-0.90
2023-03-16T03:18:12.318Z,-0.90
2023-03-16T03:20:44.266Z,-0.90
2023-03-16T03:23:17.253Z,-0.90
2023-03-16T03:25:49.086Z,-1.00
2023-03-16T03:28:25.300Z,-1.00
2023-03-16T03:30:57.353Z,-1.00
2023-03-16T03:33:29.635Z,-1.00
2023-03-16T03:36:02.321Z,-1.00
2023-03-16T03:38:34.222Z,-1.00
2023-03-16T03:41:09.362Z,-1.10
2023-03-16T03:43:41.561Z,-1.10
2023-03-16T03:46:15.603Z,-1.10
2023-03-16T03:48:47.535Z,-1.10
2023-03-16T03:51:19.424Z,-1.10
2023-03-16T03:53:51.533Z,-1.20
2023-03-16T03:56:23.627Z,-1.10
2023-03-16T03:58:55.550Z,-1.20
2023-03-16T04:01:27.356Z,-1.20
2023-03-16T04:04:01.327Z,-1.20
2023-03-16T04:06:33.179Z,-1.20
2023-03-16T04:09:05.649Z,-1.20
2023-03-16T04:11:37.646Z,-1.20
2023-03-16T04:14:09.926Z,-1.20
2023-03-16T04:16:44.312Z,-1.20
2023-03-16T04:19:16.208Z,-1.20
2023-03-16T04:21:48.183Z,-1.30
2023-03-16T04:24:20.100Z,-1.30
2023-03-16T04:26:54.367Z,-1.30
2023-03-16T04:29:26.269Z,-1.30
2023-03-16T04:31:59.130Z,-1.30
2023-03-16T04:34:31.835Z,-1.30
2023-03-16T04:37:03.666Z,-1.30
2023-03-16T04:39:35.515Z,-1.30
2023-03-16T04:42:07.318Z,-1.30
2023-03-16T04:44:44.525Z,-1.30
2023-03-16T04:47:19.139Z,-1.30
2023-03-16T04:49:50.983Z,-1.40
2023-03-16T04:52:22.780Z,-1.40
2023-03-16T04:54:54.706Z,-1.30
2023-03-16T04:57:28.803Z,-1.30
2023-03-16T05:00:09.885Z,-1.30
2023-03-16T05:02:41.756Z,-1.20
2023-03-16T05:05:14.016Z,-1.20
2023-03-16T05:07:45.820Z,-1.10
2023-03-16T05:10:20.313Z,-1.00
2023-03-16T05:12:52.098Z,-1.00
2023-03-16T05:15:28.831Z,-0.90
2023-03-16T05:18:01.690Z,-1.00
2023-03-16T05:20:33.995Z,-0.90
2023-03-16T05:23:08.233Z,-0.90
2023-03-16T05:25:40.552Z,-1.00
2023-03-16T05:28:12.606Z,-1.00
2023-03-16T05:30:45.455Z,-1.00
2023-03-16T05:33:17.394Z,-0.90
2023-03-16T05:35:51.207Z,-1.00
2023-03-16T05:38:23.145Z,-1.00
2023-03-16T05:40:55.341Z,-1.00
2023-03-16T05:43:29.608Z,-1.00
2023-03-16T05:46:01.555Z,-0.90
2023-03-16T05:48:35.775Z,-0.90
2023-03-16T05:51:07.610Z,-0.80
2023-03-16T05:53:39.456Z,-0.70
2023-03-16T05:56:11.275Z,-0.60
2023-03-16T05:58:43.037Z,-0.50
2023-03-16T06:01:15.710Z,-0.40
2023-03-16T06:03:51.961Z,-0.40
2023-03-16T06:06:26.805Z,-0.30
2023-03-16T06:08:58.606Z,-0.30
2023-03-16T06:11:32.943Z,-0.30
2023-03-16T06:14:05.281Z,-0.30
2023-03-16T06:16:37.215Z,-0.20
2023-03-16T06:19:09.061Z,-0.20
2023-03-16T06:21:41.449Z,-0.10
2023-03-16T06:24:15.704Z,0.00
2023-03-16T06:26:47.534Z,0.10
2023-03-16T06:29:19.323Z,0.30
2023-03-16T06:31:54.863Z,0.50
2023-03-16T06:34:26.673Z,0.60
2023-03-16T06:36:58.460Z,0.80
2023-03-16T06:39:30.991Z,1.10
2023-03-16T06:42:04.681Z,1.30
2023-03-16T06:44:36.638Z,1.60
2023-03-16T06:47:08.634Z,2.00
2023-03-16T06:49:40.589Z,2.50
2023-03-16T06:52:13.849Z,2.90
2023-03-16T06:54:45.606Z,3.10
2023-03-16T06:57:17.491Z,3.20
2023-03-16T06:59:49.404Z,3.10
2023-03-16T07:02:23.665Z,3.20
2023-03-16T07:04:57.846Z,3.40
2023-03-16T07:07:29.646Z,3.80
2023-03-16T07:10:01.898Z,4.10
2023-03-16T07:12:33.775Z,4.10
2023-03-16T07:15:06.032Z,4.10
2023-03-16T07:17:40.187Z,3.90
2023-03-16T07:20:12.870Z,3.80
2023-03-16T07:22:44.966Z,3.60
2023-03-16T07:25:16.810Z,3.40
2023-03-16T07:27:48.799Z,3.20
2023-03-16T07:30:22.991Z,3.10
2023-03-16T07:32:54.929Z,3.10
2023-03-16T07:35:26.762Z,3.10
2023-03-16T07:37:58.583Z,3.10
2023-03-16T07:40:31.084Z,3.10
2023-03-16T07:43:04.448Z,3.20
2023-03-16T07:45:36.342Z,3.30
2023-03-16T07:48:08.167Z,3.30
2023-03-16T07:50:39.942Z,3.40
2023-03-16T07:53:11.969Z,3.50
2023-03-16T07:55:44.285Z,3.60
2023-03-16T07:58:16.189Z,3.70
2023-03-16T08:00:47.924Z,3.80
2023-03-16T08:03:19.833Z,3.80
2023-03-16T08:05:51.719Z,3.70
2023-03-16T08:08:24.093Z,3.80
2023-03-16T08:10:56.758Z,3.90
2023-03-16T08:13:28.765Z,3.90
2023-03-16T08:16:02.104Z,4.10
2023-03-16T08:18:34.894Z,4.20
2023-03-16T08:21:06.787Z,4.30
2023-03-16T08:23:38.688Z,4.40
2023-03-16T08:26:10.669Z,4.40
2023-03-16T08:28:42.548Z,4.50
2023-03-16T08:31:14.940Z,4.30
2023-03-16T08:33:49.182Z,4.30
2023-03-16T08:36:24.095Z,4.10
2023-03-16T08:39:06.517Z,4.10
2023-03-16T08:41:40.767Z,4.20
2023-03-16T08:44:13.170Z,4.40
2023-03-16T08:46:47.502Z,4.70
2023-03-16T08:49:20.912Z,4.80
2023-03-16T08:51:54.290Z,5.00
2023-03-16T08:54:26.221Z,5.10
2023-03-16T08:56:58.216Z,5.20
2023-03-16T08:59:30.769Z,5.20
2023-03-16T09:02:04.443Z,5.10
2023-03-16T09:04:36.552Z,5.20
2023-03-16T09:07:11.525Z,5.30
2023-03-16T09:09:44.050Z,5.20
2023-03-16T09:12:15.953Z,5.40
2023-03-16T09:14:49.173Z,5.60
2023-03-16T09:17:23.370Z,5.90
2023-03-16T09:20:03.149Z,6.10
2023-03-16T09:22:40.725Z,6.30
2023-03-16T09:25:16.255Z,6.30
2023-03-16T09:27:48.132Z,6.20
2023-03-16T09:30:20.069Z,5.90
2023-03-16T09:32:52.097Z,5.80
2023-03-16T09:35:23.988Z,5.60
2023-03-16T09:38:06.161Z,5.50
2023-03-16T09:40:38.622Z,5.40
2023-03-16T09:43:16.990Z,5.40
2023-03-16T09:45:51.840Z,5.40
2023-03-16T09:48:25.751Z,5.40
2023-03-16T09:50:58.807Z,5.50
2023-03-16T09:53:32.433Z,5.50
2023-03-16T09:56:30.262Z,5.50
2023-03-16T09:59:04.411Z,5.50
2023-03-16T10:01:55.178Z,5.30
2023-03-16T10:04:34.620Z,5.20
2023-03-16T10:07:26.026Z,5.10
2023-03-16T10:10:00.503Z,5.10
2023-03-16T10:12:35.275Z,5.20
2023-03-16T10:15:07.320Z,5.30
2023-03-16T10:17:42.878Z,5.50
2023-03-16T10:20:17.766Z,5.50
2023-03-16T10:22:53.565Z,5.50
2023-03-16T10:25:27.742Z,5.40
2023-03-16T10:27:59.693Z,5.40
2023-03-16T10:30:33.334Z,5.20
2023-03-16T10:33:14.144Z,5.30
2023-03-16T10:35:45.978Z,5.40
2023-03-16T10:38:38.856Z,5.50
2023-03-16T10:41:22.903Z,5.50
2023-03-16T10:44:00.329Z,5.60
2023-03-16T10:46:36.437Z,5.50
2023-03-16T10:49:39.680Z,5.50
2023-03-16T10:52:19.733Z,5.50
2023-03-16T10:54:54.850Z,5.50
2023-03-16T10:57:26.711Z,5.10
2023-03-16T11:00:21.720Z,5.10
2023-03-16T11:02:54.454Z,5.00
2023-03-16T11:05:31.346Z,5.20
2023-03-16T11:08:12.304Z,5.40
2023-03-16T11:10:56.251Z,5.60
2023-03-16T11:13:33.885Z,5.60
2023-03-16T11:16:21.652Z,5.70
2023-03-16T11:19:06.449Z,5.80
2023-03-16T11:21:51.663Z,5.80
2023-03-16T11:24:29.613Z,5.90
2023-03-16T11:27:04.801Z,6.10
2023-03-16T11:29:58.724Z,6.40
2023-03-16T11:32:33.433Z,6.50
2023-03-16T11:35:19.637Z,6.50
2023-03-16T11:38:10.548Z,6.30
2023-03-16T11:41:01.593Z,6.20
2023-03-16T11:43:33.410Z,6.10
2023-03-16T11:46:10.842Z,5.90
2023-03-16T11:48:42.639Z,5.90
2023-03-16T11:51:41.149Z,5.80
2023-03-16T11:54:37.048Z,5.80
2023-03-16T11:57:24.233Z,5.90
2023-03-16T12:00:02.464Z,6.10
2023-03-16T12:02:54.263Z,6.20
2023-03-16T12:05:29.159Z,6.10
2023-03-16T12:08:06.484Z,6.10
2023-03-16T12:10:41.986Z,6.30
2023-03-16T12:13:30.784Z,6.10
2023-03-16T12:16:11.029Z,5.90
2023-03-16T12:18:49.693Z,5.60
2023-03-16T12:21:26.368Z,4.50
2023-03-16T12:24:07.487Z,3.40
2023-03-16T12:26:45.437Z,2.90
2023-03-16T12:29:22.866Z,2.80
2023-03-16T12:32:15.362Z,2.90
2023-03-16T12:35:00.374Z,3.00
2023-03-16T12:37:42.275Z,3.10
2023-03-16T12:40:31.854Z,3.30
2023-03-16T12:43:29.194Z,3.50
2023-03-16T12:46:08.596Z,3.70
2023-03-16T12:48:40.376Z,4.00
2023-03-16T12:51:12.120Z,4.20
2023-03-16T12:53:53.740Z,4.10
2023-03-16T12:56:30.311Z,3.70
2023-03-16T12:59:06.030Z,3.50
2023-03-16T13:01:40.158Z,3.30
2023-03-16T13:04:14.074Z,3.30
2023-03-16T13:06:49.506Z,3.50
2023-03-16T13:09:24.275Z,3.70
2023-03-16T13:11:56.255Z,4.10
2023-03-16T13:14:41.827Z,4.30
2023-03-16T13:17:17.008Z,4.40
2023-03-16T13:19:59.716Z,4.60
2023-03-16T13:22:41.054Z,4.70
2023-03-16T13:25:18.837Z,4.80
2023-03-16T13:27:53.135Z,4.80
2023-03-16T13:30:32.693Z,4.80
2023-03-16T13:33:14.663Z,4.80
2023-03-16T13:35:49.135Z,4.70
2023-03-16T13:38:28.805Z,4.70
2023-03-16T13:41:04.944Z,4.70
2023-03-16T13:43:39.483Z,4.70
2023-03-16T13:46:17.972Z,4.70
2023-03-16T13:48:50.425Z,4.70
2023-03-16T13:51:22.842Z,4.60
2023-03-16T13:53:54.931Z,4.80
2023-03-16T13:56:30.312Z,4.80
2023-03-16T13:59:03.464Z,4.80
2023-03-16T14:01:35.711Z,5.00
2023-03-16T14:04:13.685Z,4.80
2023-03-16T14:06:53.390Z,4.80
2023-03-16T14:09:27.367Z,4.80
2023-03-16T14:11:59.245Z,4.70
2023-03-16T14:14:32.046Z,4.70
2023-03-16T14:17:08.799Z,4.80
2023-03-16T14:19:46.749Z,4.90
2023-03-16T14:22:20.688Z,4.90
2023-03-16T14:24:54.670Z,5.10
2023-03-16T14:27:29.234Z,5.40
2023-03-16T14:30:18.664Z,5.80
2023-03-16T14:33:08.907Z,6.20
2023-03-16T14:35:42.776Z,6.60
2023-03-16T14:38:33.640Z,6.80
2023-03-16T14:41:09.632Z,6.50
2023-03-16T14:43:49.602Z,6.00
2023-03-16T14:46:29.755Z,5.70
2023-03-16T14:49:10.424Z,5.60
2023-03-16T14:51:42.327Z,5.60
2023-03-16T14:54:17.215Z,5.70
2023-03-16T14:56:50.682Z,5.80
2023-03-16T14:59:22.615Z,5.70
2023-03-16T15:01:55.383Z,5.70
2023-03-16T15:04:29.718Z,5.80
2023-03-16T15:07:02.222Z,5.90
2023-03-16T15:09:39.030Z,5.90
2023-03-16T15:12:14.231Z,5.90
2023-03-16T15:15:05.046Z,5.80
2023-03-16T15:17:37.219Z,5.70
2023-03-16T15:20:10.232Z,5.50
2023-03-16T15:22:42.601Z,5.30
2023-03-16T15:25:20.851Z,5.10
2023-03-16T15:27:54.045Z,5.00
2023-03-16T15:30:27.039Z,4.90
2023-03-16T15:32:58.949Z,4.80
2023-03-16T15:35:33.156Z,4.80
2023-03-16T15:38:08.820Z,4.70
2023-03-16T15:40:41.905Z,4.70
2023-03-16T15:43:14.748Z,4.70
2023-03-16T15:45:47.421Z,4.60
2023-03-16T15:48:24.597Z,4.50
2023-03-16T15:50:58.473Z,4.50
2023-03-16T15:53:45.757Z,4.50
2023-03-16T15:56:19.591Z,4.40
2023-03-16T15:58:51.456Z,4.30
2023-03-16T16:01:25.905Z,4.20
2023-03-16T16:03:58.250Z,4.00
2023-03-16T16:06:30.643Z,3.90
2023-03-16T16:09:06.228Z,3.80
2023-03-16T16:11:38.678Z,3.80
2023-03-16T16:14:19.321Z,3.60
2023-03-16T16:16:51.828Z,3.50
2023-03-16T16:19:23.754Z,3.40
2023-03-16T16:21:55.512Z,3.30
2023-03-16T16:24:27.308Z,3.20
2023-03-16T16:26:59.061Z,3.10
2023-03-16T16:29:35.549Z,3.00
2023-03-16T16:32:25.910Z,3.00
2023-03-16T16:35:04.315Z,2.90
2023-03-16T16:37:46.652Z,2.70
2023-03-16T16:40:22.339Z,2.60
2023-03-16T16:42:57.391Z,2.40
2023-03-16T16:45:30.298Z,2.30
2023-03-16T16:48:02.474Z,2.20
2023-03-16T16:50:34.258Z,2.10
2023-03-16T16:53:16.449Z,2.00
2023-03-16T16:55:48.627Z,1.90
2023-03-16T16:58:24.606Z,1.80
2023-03-16T17:00:59.082Z,1.80
2023-03-16T17:03:34.120Z,1.70
2023-03-16T17:06:06.052Z,1.60
2023-03-16T17:08:38.126Z,1.50
2023-03-16T17:11:30.484Z,1.40
2023-03-16T17:14:06.088Z,1.40
2023-03-16T17:16:38.142Z,1.40
2023-03-16T17:19:24.204Z,1.30
2023-03-16T17:21:57.523Z,1.30
2023-03-16T17:24:29.829Z,1.20
2023-03-16T17:27:02.666Z,1.20
2023-03-16T17:29:36.831Z,1.10
2023-03-16T17:32:24.437Z,1.10
2023-03-16T17:34:56.450Z,1.00
2023-03-16T17:37:31.386Z,0.90
2023-03-16T17:40:03.418Z,0.80
2023-03-16T17:42:35.309Z,0.80
2023-03-16T17:45:15.389Z,0.70
2023-03-16T17:47:47.870Z,0.70
2023-03-16T17:50:20.144Z,0.60
2023-03-16T17:52:53.078Z,0.50
2023-03-16T17:55:24.995Z,0.50
2023-03-16T17:57:57.089Z,0.50
2023-03-16T18:00:33.205Z,0.50
2023-03-16T18:03:13.741Z,0.40
2023-03-16T18:05:46.391Z,0.40
2023-03-16T18:08:28.680Z,0.30
2023-03-16T18:11:01.908Z,0.20
2023-03-16T18:13:38.880Z,0.20
2023-03-16T18:16:15.084Z,0.10
2023-03-16T18:18:46.933Z,0.10
2023-03-16T18:21:20.115Z,0.00
2023-03-16T18:23:52.451Z,0.00
2023-03-16T18:26:24.778Z,0.00
2023-03-16T18:28:59.446Z,-0.10
2023-03-16T18:31:31.471Z,-0.10
2023-03-16T18:34:05.356Z,-0.20
2023-03-16T18:36:37.911Z,-0.20
2023-03-16T18:39:15.132Z,-0.20
2023-03-16T18:41:47.147Z,-0.30
2023-03-16T18:44:20.605Z,-0.30
2023-03-16T18:46:54.267Z,-0.40
2023-03-16T18:49:29.684Z,-0.40
2023-03-16T18:52:01.926Z,-0.40
2023-03-16T18:54:35.568Z,-0.50
2023-03-16T18:57:16.600Z,-0.60
2023-03-16T18:59:48.769Z,-0.60
2023-03-16T19:02:20.890Z,-0.60
2023-03-16T19:04:52.943Z,-0.50
2023-03-16T19:07:28.754Z,-0.50
2023-03-16T19:10:03.114Z,-0.50
2023-03-16T19:12:35.148Z,-0.60
2023-03-16T19:15:17.094Z,-0.60
2023-03-16T19:17:51.818Z,-0.60
2023-03-16T19:20:25.097Z,-0.70
2023-03-16T19:23:03.536Z,-0.70
2023-03-16T19:25:37.082Z,-0.70
2023-03-16T19:28:17.436Z,-0.70
2023-03-16T19:30:49.398Z,-0.80
2023-03-16T19:33:22.781Z,-0.80
2023-03-16T19:35:56.135Z,-0.90
2023-03-16T19:38:28.522Z,-0.90
2023-03-16T19:41:00.612Z,-0.90
2023-03-16T19:43:32.595Z,-0.90
2023-03-16T19:46:07.567Z,-1.00
2023-03-16T19:48:40.134Z,-1.00
2023-03-16T19:51:18.260Z,-1.00
2023-03-16T19:53:52.707Z,-1.10
2023-03-16T19:56:27.621Z,-1.10
2023-03-16T19:59:00.033Z,-1.20
2023-03-16T20:01:33.006Z,-1.20
2023-03-16T20:04:06.555Z,-1.20
2023-03-16T20:06:40.724Z,-1.30
2023-03-16T20:09:13.828Z,-1.30
2023-03-16T20:11:46.987Z,-1.30
2023-03-16T20:14:27.328Z,-1.40
2023-03-16T20:16:59.953Z,-1.40
2023-03-16T20:19:32.040Z,-1.40
2023-03-16T20:22:09.291Z,-1.40
2023-03-16T20:24:44.300Z,-1.40
2023-03-16T20:27:17.053Z,-1.40
2023-03-16T20:29:49.404Z,-1.50
2023-03-16T20:32:22.614Z,-1.50
2023-03-16T20:34:54.619Z,-1.50
2023-03-16T20:37:30.006Z,-1.50
2023-03-16T20:40:02.085Z,-1.50
2023-03-16T20:42:42.544Z,-1.50
2023-03-16T20:45:33.143Z,-1.50
2023-03-16T20:48:11.987Z,-1.60
2023-03-16T20:50:44.422Z,-1.60
2023-03-16T20:53:17.811Z,-1.60
2023-03-16T20:55:51.541Z,-1.60
2023-03-16T20:58:25.482Z,-1.60
2023-03-16T21:01:02.943Z,-1.70
2023-03-16T21:03:34.976Z,-1.70
2023-03-16T21:06:14.647Z,-1.70
2023-03-16T21:08:56.010Z,-1.80
2023-03-16T21:11:32.258Z,-1.80
2023-03-16T21:14:05.047Z,-1.80
2023-03-16T21:16:36.854Z,-1.80
2023-03-16T21:19:16.252Z,-1.90
2023-03-16T21:21:52.890Z,-1.90
2023-03-16T21:24:32.209Z,-1.90
2023-03-16T21:27:04.459Z,-1.90
2023-03-16T21:29:36.850Z,-1.90
2023-03-16T21:32:20.173Z,-1.90
2023-03-16T21:34:52.375Z,-1.90
2023-03-16T21:37:30.469Z,-2.00
2023-03-16T21:40:02.245Z,-2.00
2023-03-16T21:42:37.213Z,-2.00
2023-03-16T21:45:09.816Z,-2.00
2023-03-16T21:47:45.447Z,-2.00
2023-03-16T21:50:18.428Z,-2.00
2023-03-16T21:52:50.785Z,-2.10
2023-03-16T21:55:27.091Z,-2.00
2023-03-16T21:58:00.016Z,-2.10
2023-03-16T22:00:35.512Z,-2.10
2023-03-16T22:03:19.898Z,-2.10
2023-03-16T22:05:52.463Z,-2.10
2023-03-16T22:08:27.222Z,-2.20
2023-03-16T22:10:59.213Z,-2.20
2023-03-16T22:13:33.492Z,-2.20
2023-03-16T22:16:10.206Z,-2.20
2023-03-16T22:18:42.379Z,-2.20
2023-03-16T22:21:16.517Z,-2.20
2023-03-16T22:23:48.540Z,-2.30
2023-03-16T22:26:22.508Z,-2.20
2023-03-16T22:28:56.273Z,-2.30
2023-03-16T22:31:35.572Z,-2.30
2023-03-16T22:34:10.316Z,-2.30
2023-03-16T22:36:42.958Z,-2.30
2023-03-16T22:39:17.853Z,-2.30
2023-03-16T22:41:50.621Z,-2.20
2023-03-16T22:44:23.072Z,-2.30
2023-03-16T22:46:57.498Z,-2.20
2023-03-16T22:49:29.346Z,-2.20
2023-03-16T22:52:02.053Z,-2.20
2023-03-16T22:54:33.921Z,-2.20
2023-03-16T22:57:05.876Z,-2.20
2023-03-16T22:59:37.682Z,-2.20
2023-03-16T23:02:13.969Z,-2.10
2023-03-16T23:04:45.947Z,-2.10
2023-03-16T23:07:18.207Z,-2.10
2023-03-16T23:09:50.006Z,-2.10
2023-03-16T23:12:22.167Z,-2.00
2023-03-16T23:14:53.969Z,-2.00
2023-03-16T23:17:25.880Z,-1.90
2023-03-16T23:19:57.665Z,-1.90
2023-03-16T23:22:29.438Z,-1.90
2023-03-16T23:25:01.286Z,-1.90
2023-03-16T23:27:33.040Z,-1.80
2023-03-16T23:30:15.527Z,-1.80
2023-03-16T23:32:47.718Z,-1.70
2023-03-16T23:35:27.547Z,-1.70
2023-03-16T23:37:59.426Z,-1.60
2023-03-16T23:40:31.681Z,-1.60
2023-03-16T23:43:03.732Z,-1.50
2023-03-16T23:45:40.731Z,-1.50
2023-03-16T23:48:18.101Z,-1.50
2023-03-16T23:50:52.188Z,-1.30
2023-03-16T23:53:25.597Z,-1.30
2023-03-16T23:55:57.862Z,-1.30
2023-03-16T23:58:29.623Z,-1.20
